createdAt,value
2018-08-06T00:02:20.320Z,21.15
2018-08-06T00:04:48.417Z,21.12
2018-08-06T00:07:16.644Z,21.13
2018-08-06T00:09:44.940Z,21.22
2018-08-06T00:12:13.041Z,20.92
2018-08-06T00:14:41.198Z,20.69
2018-08-06T00:17:09.517Z,20.55
2018-08-06T00:19:37.799Z,20.48
2018-08-06T00:22:06.175Z,20.47
2018-08-06T00:24:34.295Z,20.46
2018-08-06T00:27:02.428Z,20.50
2018-08-06T00:29:31.549Z,20.53
2018-08-06T00:31:59.688Z,20.40
2018-08-06T00:34:27.815Z,20.33
2018-08-06T00:36:56.031Z,20.25
2018-08-06T00:39:24.151Z,20.29
2018-08-06T00:41:52.246Z,20.33
2018-08-06T00:44:20.348Z,20.35
2018-08-06T00:46:48.454Z,20.34
2018-08-06T00:49:16.606Z,20.29
2018-08-06T00:51:44.691Z,20.36
2018-08-06T00:54:12.801Z,20.47
2018-08-06T00:56:40.905Z,20.62
2018-08-06T00:59:09.029Z,20.50
2018-08-06T01:01:37.499Z,20.33
2018-08-06T01:04:05.725Z,20.15
2018-08-06T01:06:33.814Z,20.06
2018-08-06T01:09:01.927Z,20.02
2018-08-06T01:11:30.021Z,20.21
2018-08-06T01:13:58.108Z,20.18
2018-08-06T01:16:26.224Z,20.25
2018-08-06T01:18:54.911Z,20.05
2018-08-06T01:21:23.008Z,19.90
2018-08-06T01:23:51.091Z,19.76
2018-08-06T01:26:19.206Z,19.67
2018-08-06T01:28:47.363Z,19.67
2018-08-06T01:34:08.504Z,19.56
2018-08-06T01:36:36.851Z,19.67
2018-08-06T01:39:08.066Z,19.53
2018-08-06T01:41:36.314Z,19.35
2018-08-06T01:44:04.456Z,19.51
2018-08-06T01:46:32.627Z,19.38
2018-08-06T01:49:00.719Z,19.36
2018-08-06T01:51:28.811Z,19.35
2018-08-06T01:53:56.948Z,19.46
2018-08-06T01:56:25.035Z,19.57
2018-08-06T01:58:53.115Z,19.39
2018-08-06T02:01:21.245Z,19.32
2018-08-06T02:03:49.338Z,19.22
2018-08-06T02:06:17.450Z,19.19
2018-08-06T02:08:45.578Z,19.05
2018-08-06T02:11:15.424Z,18.97
2018-08-06T02:16:45.631Z,18.81
2018-08-06T02:19:33.042Z,18.71
2018-08-06T02:22:20.539Z,18.58
2018-08-06T02:24:56.160Z,18.64
2018-08-06T02:27:31.409Z,18.49
2018-08-06T02:32:58.373Z,18.41
2018-08-06T02:35:33.379Z,18.33
2018-08-06T02:38:08.609Z,18.21
2018-08-06T02:40:49.413Z,18.25
2018-08-06T02:43:26.843Z,18.41
2018-08-06T02:46:00.537Z,18.18
2018-08-06T02:48:35.985Z,18.14
2018-08-06T02:51:08.866Z,18.14
2018-08-06T02:56:38.373Z,18.14
2018-08-06T02:59:10.844Z,18.15
2018-08-06T03:01:48.484Z,18.14
2018-08-06T03:04:30.882Z,18.10
2018-08-06T03:07:02.895Z,18.19
2018-08-06T03:09:37.158Z,18.31
2018-08-06T03:12:10.828Z,18.36
2018-08-06T03:14:44.242Z,18.43
2018-08-06T03:17:31.268Z,18.46
2018-08-06T03:20:04.215Z,18.54
2018-08-06T03:22:40.607Z,18.81
2018-08-06T03:25:18.929Z,19.02
2018-08-06T03:30:54.981Z,18.98
2018-08-06T03:33:39.669Z,18.94
2018-08-06T03:36:31.080Z,18.91
2018-08-06T03:42:05.504Z,18.62
2018-08-06T03:44:37.653Z,18.49
2018-08-06T03:47:09.262Z,18.39
2018-08-06T03:49:40.564Z,18.30
2018-08-06T03:52:14.104Z,18.35
2018-08-06T03:55:19.860Z,18.43
2018-08-06T03:57:52.084Z,18.29
2018-08-06T04:00:24.074Z,18.28
2018-08-06T04:03:11.135Z,18.36
2018-08-06T04:05:43.193Z,18.44
2018-08-06T04:08:18.630Z,18.83
2018-08-06T04:10:56.063Z,18.79
2018-08-06T04:13:49.952Z,18.58
2018-08-06T04:19:24.114Z,18.42
2018-08-06T04:21:56.883Z,18.48
2018-08-06T04:24:35.174Z,18.56
2018-08-06T04:27:07.468Z,18.48
2018-08-06T04:29:39.677Z,18.42
2018-08-06T04:44:25.175Z,18.28
2018-08-06T04:46:57.492Z,18.37
2018-08-06T04:49:29.517Z,18.52
2018-08-06T04:52:04.262Z,18.81
2018-08-06T04:54:36.326Z,18.97
2018-08-06T04:57:09.135Z,19.18
2018-08-06T05:00:00.554Z,19.15
2018-08-06T05:02:34.277Z,19.43
2018-08-06T05:05:16.910Z,19.55
2018-08-06T05:07:50.186Z,19.55
2018-08-06T05:10:22.613Z,19.59
2018-08-06T05:12:54.073Z,19.45
2018-08-06T05:15:26.949Z,19.61
2018-08-06T05:18:10.072Z,19.81
2018-08-06T05:20:43.966Z,19.71
2018-08-06T05:23:16.088Z,19.62
2018-08-06T05:28:34.193Z,19.64
2018-08-06T05:31:07.881Z,19.81
2018-08-06T05:33:38.974Z,19.85
2018-08-06T05:36:21.734Z,19.89
2018-08-06T05:39:00.471Z,19.90
2018-08-06T05:41:33.734Z,20.00
2018-08-06T05:47:04.530Z,20.88
2018-08-06T05:49:37.406Z,22.82
2018-08-06T05:52:10.645Z,24.66
2018-08-06T05:54:43.569Z,26.30
2018-08-06T05:57:17.118Z,27.56
2018-08-06T06:00:14.506Z,28.32
2018-08-06T06:02:47.187Z,28.58
2018-08-06T06:05:19.384Z,29.31
2018-08-06T06:07:51.726Z,28.95
2018-08-06T06:13:39.575Z,28.81
2018-08-06T06:16:12.595Z,28.90
2018-08-06T06:21:26.155Z,26.94
2018-08-06T06:23:59.554Z,27.21
2018-08-06T06:26:41.116Z,26.81
2018-08-06T06:29:13.765Z,27.30
2018-08-06T06:31:47.592Z,26.75
2018-08-06T06:34:20.887Z,26.71
2018-08-06T06:36:53.420Z,24.66
2018-08-06T06:39:36.354Z,24.02
2018-08-06T06:42:08.833Z,23.78
2018-08-06T06:47:39.447Z,23.07
2018-08-06T06:50:11.587Z,23.18
2018-08-06T06:52:58.773Z,23.15
2018-08-06T06:55:31.182Z,23.22
2018-08-06T06:58:03.565Z,23.72
2018-08-06T07:03:42.679Z,23.89
2018-08-06T07:06:15.289Z,23.86
2018-08-06T07:11:48.795Z,23.93
2018-08-06T07:14:21.315Z,23.91
2018-08-06T07:17:08.333Z,23.93
2018-08-06T07:19:40.327Z,24.14
2018-08-06T07:22:22.566Z,24.26
2018-08-06T07:25:11.269Z,24.23
2018-08-06T07:27:44.565Z,24.27
2018-08-06T07:30:19.671Z,24.00
2018-08-06T07:32:51.810Z,24.21
2018-08-06T07:35:23.895Z,24.36
2018-08-06T07:37:55.995Z,24.72
2018-08-06T07:40:27.455Z,24.77
2018-08-06T07:45:44.176Z,24.86
2018-08-06T07:51:08.888Z,24.94
2018-08-06T07:53:41.581Z,24.99
2018-08-06T07:56:13.641Z,25.09
2018-08-06T07:58:51.741Z,25.38
2018-08-06T08:01:24.367Z,25.39
2018-08-06T08:03:56.885Z,25.29
2018-08-06T08:06:29.651Z,25.35
2018-08-06T08:09:01.741Z,25.27
2018-08-06T08:14:14.040Z,25.57
2018-08-06T08:16:47.329Z,25.75
2018-08-06T08:19:21.264Z,25.53
2018-08-06T08:21:54.118Z,25.51
2018-08-06T08:24:26.275Z,25.52
2018-08-06T08:26:57.126Z,25.53
2018-08-06T08:29:29.435Z,25.51
2018-08-06T08:32:01.555Z,25.75
2018-08-06T08:34:32.981Z,25.78
2018-08-06T08:37:05.333Z,25.95
2018-08-06T08:39:37.203Z,26.12
2018-08-06T08:42:09.621Z,26.12
2018-08-06T08:44:41.938Z,26.06
2018-08-06T08:47:14.713Z,26.26
2018-08-06T08:49:47.149Z,26.33
2018-08-06T08:52:24.921Z,26.52
2018-08-06T08:54:58.416Z,26.84
2018-08-06T08:57:30.139Z,26.74
2018-08-06T09:00:02.635Z,26.96
2018-08-06T09:02:33.639Z,27.27
2018-08-06T09:05:07.066Z,27.41
2018-08-06T09:07:39.443Z,27.47
2018-08-06T09:10:14.978Z,27.26
2018-08-06T09:12:47.330Z,27.31
2018-08-06T09:15:22.176Z,27.24
2018-08-06T09:17:55.329Z,27.51
2018-08-06T09:20:27.836Z,27.21
2018-08-06T09:26:21.860Z,27.70
2018-08-06T09:28:54.373Z,27.71
2018-08-06T09:31:26.521Z,27.98
2018-08-06T09:37:16.034Z,28.03
2018-08-06T09:39:49.508Z,28.36
2018-08-06T09:42:22.137Z,28.65
2018-08-06T09:44:54.935Z,28.80
2018-08-06T09:47:26.896Z,28.57
2018-08-06T09:49:59.708Z,28.72
2018-08-06T09:52:31.541Z,28.87
2018-08-06T09:55:03.619Z,28.89
2018-08-06T09:57:35.782Z,28.79
2018-08-06T10:01:16.524Z,29.11
2018-08-06T10:04:00.623Z,28.94
2018-08-06T10:06:28.839Z,29.15
2018-08-06T10:08:56.868Z,29.32
2018-08-06T10:11:24.978Z,29.34
2018-08-06T10:13:53.076Z,29.42
2018-08-06T10:16:21.459Z,29.65
2018-08-06T10:18:49.627Z,29.73
2018-08-06T10:21:17.671Z,29.87
2018-08-06T10:23:45.779Z,30.01
2018-08-06T10:26:13.867Z,29.84
2018-08-06T10:28:41.987Z,30.08
2018-08-06T10:31:10.067Z,30.24
2018-08-06T10:33:38.474Z,30.33
2018-08-06T10:36:06.555Z,30.60
2018-08-06T10:38:34.635Z,30.81
2018-08-06T10:41:02.733Z,30.71
2018-08-06T10:43:30.834Z,30.82
2018-08-06T10:45:58.912Z,30.49
2018-08-06T10:48:27.106Z,30.80
2018-08-06T10:50:55.123Z,30.71
2018-08-06T10:53:24.055Z,30.69
2018-08-06T10:55:52.147Z,30.86
2018-08-06T10:58:20.228Z,30.91
2018-08-06T11:00:48.328Z,30.79
2018-08-06T11:03:16.433Z,30.87
2018-08-06T11:05:44.542Z,30.83
2018-08-06T11:08:12.635Z,31.24
2018-08-06T11:10:40.745Z,31.31
2018-08-06T11:13:08.904Z,31.52
2018-08-06T11:15:37.006Z,31.68
2018-08-06T11:18:05.281Z,31.52
2018-08-06T11:20:33.424Z,31.78
2018-08-06T11:23:01.480Z,32.22
2018-08-06T11:25:29.572Z,32.21
2018-08-06T11:27:57.688Z,32.28
2018-08-06T11:30:26.695Z,32.42
2018-08-06T11:32:55.057Z,32.41
2018-08-06T11:35:23.139Z,32.05
2018-08-06T11:37:51.763Z,32.37
2018-08-06T11:40:19.887Z,32.41
2018-08-06T11:42:48.566Z,32.33
2018-08-06T11:45:18.906Z,32.39
2018-08-06T11:47:47.039Z,32.25
2018-08-06T11:50:15.148Z,32.28
2018-08-06T11:52:43.251Z,32.47
2018-08-06T11:55:11.396Z,32.19
2018-08-06T11:57:39.531Z,32.32
2018-08-06T12:00:11.724Z,32.44
2018-08-06T12:02:39.810Z,32.11
2018-08-06T12:05:07.948Z,31.55
2018-08-06T12:07:36.236Z,32.06
2018-08-06T12:10:06.286Z,31.67
2018-08-06T12:12:34.355Z,31.85
2018-08-06T12:15:02.446Z,32.23
2018-08-06T12:17:30.548Z,32.25
2018-08-06T12:19:58.632Z,31.96
2018-08-06T12:22:26.723Z,32.13
2018-08-06T12:24:54.813Z,32.15
2018-08-06T12:27:22.980Z,32.49
2018-08-06T12:29:51.009Z,32.61
2018-08-06T12:32:19.108Z,32.89
2018-08-06T12:34:47.197Z,32.57
2018-08-06T12:37:15.311Z,32.34
2018-08-06T12:39:43.433Z,31.87
2018-08-06T12:42:11.539Z,32.36
2018-08-06T12:44:39.627Z,31.85
2018-08-06T12:47:07.737Z,31.96
2018-08-06T12:49:35.827Z,31.90
2018-08-06T12:52:03.920Z,32.35
2018-08-06T12:54:32.019Z,32.34
2018-08-06T12:57:00.308Z,32.48
2018-08-06T12:59:28.360Z,32.59
2018-08-06T13:01:56.481Z,32.48
2018-08-06T13:04:24.563Z,33.03
2018-08-06T13:06:52.729Z,33.43
2018-08-06T13:09:20.811Z,33.80
2018-08-06T13:11:48.907Z,34.12
2018-08-06T13:14:16.995Z,34.14
2018-08-06T13:16:45.115Z,34.00
2018-08-06T13:19:13.221Z,34.18
2018-08-06T13:21:41.363Z,33.86
2018-08-06T13:24:09.469Z,33.39
2018-08-06T13:26:37.572Z,33.01
2018-08-06T13:29:06.135Z,33.58
2018-08-06T13:31:34.206Z,33.52
2018-08-06T13:34:02.340Z,33.23
2018-08-06T13:36:30.459Z,32.97
2018-08-06T13:38:58.551Z,32.96
2018-08-06T13:41:26.647Z,33.12
2018-08-06T13:43:54.734Z,33.53
2018-08-06T13:46:22.822Z,33.51
2018-08-06T13:48:50.934Z,33.71
2018-08-06T13:51:19.018Z,34.07
2018-08-06T13:53:47.116Z,34.47
2018-08-06T13:56:15.199Z,34.49
2018-08-06T13:58:44.137Z,34.19
2018-08-06T14:01:12.232Z,34.06
2018-08-06T14:03:40.347Z,33.86
2018-08-06T14:06:08.687Z,33.63
2018-08-06T14:08:36.777Z,33.81
2018-08-06T14:11:04.867Z,33.53
2018-08-06T14:13:32.964Z,33.31
2018-08-06T14:16:01.044Z,33.38
2018-08-06T14:18:29.148Z,33.78
2018-08-06T14:20:57.226Z,33.54
2018-08-06T14:23:25.332Z,33.57
2018-08-06T14:25:53.461Z,33.41
2018-08-06T14:28:21.560Z,33.34
2018-08-06T14:30:49.659Z,33.36
2018-08-06T14:33:18.656Z,33.33
2018-08-06T14:35:46.759Z,33.71
2018-08-06T14:38:14.888Z,33.61
2018-08-06T14:40:42.965Z,33.55
2018-08-06T14:43:11.076Z,33.28
2018-08-06T14:45:39.163Z,33.53
2018-08-06T14:48:07.321Z,33.53
2018-08-06T14:50:36.005Z,33.61
2018-08-06T14:53:04.125Z,33.71
2018-08-06T14:55:32.504Z,33.80
2018-08-06T14:58:00.589Z,33.93
2018-08-06T15:00:28.664Z,33.71
2018-08-06T15:02:56.775Z,33.66
2018-08-06T15:05:24.892Z,33.68
2018-08-06T15:07:52.984Z,33.80
2018-08-06T15:10:21.081Z,33.61
2018-08-06T15:12:49.195Z,33.82
2018-08-06T15:15:18.168Z,33.82
2018-08-06T15:17:46.643Z,33.95
2018-08-06T15:20:16.043Z,34.36
2018-08-06T15:22:44.439Z,34.23
2018-08-06T15:25:15.170Z,34.33
2018-08-06T15:27:43.523Z,34.28
2018-08-06T15:30:11.813Z,34.76
2018-08-06T15:32:40.572Z,34.29
2018-08-06T15:35:12.560Z,33.95
2018-08-06T15:37:41.338Z,33.79
2018-08-06T15:40:15.644Z,33.71
2018-08-06T15:42:43.777Z,34.14
2018-08-06T15:45:12.645Z,34.26
2018-08-06T15:47:42.139Z,34.30
2018-08-06T15:50:15.647Z,34.34
2018-08-06T15:52:43.836Z,34.00
2018-08-06T15:55:11.948Z,33.89
2018-08-06T15:57:40.034Z,34.22
2018-08-06T16:00:14.896Z,34.24
2018-08-06T16:02:43.279Z,34.31
2018-08-06T16:05:11.713Z,34.35
2018-08-06T16:07:40.311Z,34.20
2018-08-06T16:10:10.042Z,34.28
2018-08-06T16:12:38.233Z,33.63
2018-08-06T16:15:08.160Z,33.82
2018-08-06T16:17:36.375Z,33.65
2018-08-06T16:20:06.547Z,33.94
2018-08-06T16:22:34.633Z,34.19
2018-08-06T16:25:03.094Z,34.00
2018-08-06T16:27:31.147Z,33.83
2018-08-06T16:29:59.257Z,33.34
2018-08-06T16:32:27.359Z,33.63
2018-08-06T16:34:55.454Z,33.57
2018-08-06T16:37:23.548Z,33.56
2018-08-06T16:39:52.444Z,33.74
2018-08-06T16:42:20.524Z,33.88
2018-08-06T16:44:48.684Z,33.84
2018-08-06T16:47:16.774Z,33.72
2018-08-06T16:49:44.899Z,33.71
2018-08-06T16:52:12.998Z,33.78
2018-08-06T16:54:41.087Z,33.72
2018-08-06T16:57:09.467Z,33.82
2018-08-06T16:59:37.555Z,34.06
2018-08-06T17:02:05.668Z,34.20
2018-08-06T17:04:33.789Z,33.98
2018-08-06T17:07:01.921Z,33.94
2018-08-06T17:09:30.008Z,34.06
2018-08-06T17:12:02.659Z,33.85
2018-08-06T17:14:35.818Z,33.60
2018-08-06T17:17:08.143Z,33.31
2018-08-06T17:19:40.714Z,33.34
2018-08-06T17:22:17.912Z,33.36
2018-08-06T17:24:50.713Z,33.29
2018-08-06T17:27:34.039Z,33.23
2018-08-06T17:30:07.813Z,33.37
2018-08-06T17:32:40.371Z,33.38
2018-08-06T17:35:15.489Z,33.18
2018-08-06T17:37:48.399Z,33.04
2018-08-06T17:40:21.790Z,33.15
2018-08-06T17:42:53.349Z,32.86
2018-08-06T17:45:25.768Z,32.74
2018-08-06T17:47:57.963Z,32.68
2018-08-06T17:50:31.942Z,32.52
2018-08-06T17:53:04.197Z,32.44
2018-08-06T17:55:36.325Z,32.33
2018-08-06T17:58:09.109Z,32.15
2018-08-06T18:01:02.091Z,31.96
2018-08-06T18:03:33.818Z,31.86
2018-08-06T18:06:05.781Z,31.78
2018-08-06T18:08:53.388Z,31.61
2018-08-06T18:11:27.376Z,31.50
2018-08-06T18:14:08.938Z,31.40
2018-08-06T18:16:41.693Z,31.29
2018-08-06T18:19:13.551Z,31.22
2018-08-06T18:21:44.229Z,31.12
2018-08-06T18:24:16.640Z,31.00
2018-08-06T18:26:48.971Z,30.83
2018-08-06T18:29:20.823Z,30.73
2018-08-06T18:31:52.937Z,30.61
2018-08-06T18:34:41.481Z,30.47
2018-08-06T18:37:14.521Z,30.60
2018-08-06T18:39:46.753Z,30.58
2018-08-06T18:42:19.087Z,30.53
2018-08-06T18:44:51.416Z,30.44
2018-08-06T18:47:23.657Z,30.37
2018-08-06T18:49:56.058Z,30.23
2018-08-06T18:52:24.180Z,30.09
2018-08-06T18:54:52.283Z,29.99
2018-08-06T18:57:20.445Z,29.93
2018-08-06T18:59:48.533Z,29.93
2018-08-06T19:02:16.648Z,29.78
2018-08-06T19:04:45.628Z,29.64
2018-08-06T19:07:13.739Z,29.49
2018-08-06T19:09:42.096Z,29.43
2018-08-06T19:14:21.740Z,29.35
2018-08-06T19:16:51.132Z,29.31
2018-08-06T19:19:22.142Z,29.26
2018-08-06T19:21:51.163Z,29.22
2018-08-06T19:24:24.663Z,29.08
2018-08-06T19:26:52.768Z,29.00
2018-08-06T19:29:20.956Z,28.91
2018-08-06T19:31:49.058Z,28.78
2018-08-06T19:34:17.205Z,28.66
2018-08-06T19:36:50.602Z,28.56
2018-08-06T19:39:18.952Z,28.42
2018-08-06T19:41:47.196Z,28.26
2018-08-06T19:44:15.299Z,28.14
2018-08-06T19:46:44.356Z,28.09
2018-08-06T19:49:17.978Z,28.07
2018-08-06T19:51:46.083Z,28.09
2018-08-06T19:54:14.506Z,28.04
2018-08-06T19:56:42.784Z,27.79
2018-08-06T19:59:11.392Z,27.72
2018-08-06T20:01:39.441Z,27.67
2018-08-06T20:04:08.164Z,27.59
2018-08-06T20:06:36.335Z,27.50
2018-08-06T20:09:08.106Z,27.28
2018-08-06T20:11:36.471Z,27.16
2018-08-06T20:14:06.951Z,27.15
2018-08-06T20:16:35.047Z,27.15
2018-08-06T20:19:03.564Z,27.12
2018-08-06T20:21:31.655Z,27.06
2018-08-06T20:23:59.751Z,26.94
2018-08-06T20:26:27.842Z,26.80
2018-08-06T20:28:55.955Z,26.83
2018-08-06T20:31:24.062Z,26.72
2018-08-06T20:33:52.172Z,26.87
2018-08-06T20:36:20.281Z,26.74
2018-08-06T20:38:48.379Z,26.75
2018-08-06T20:41:16.755Z,26.59
2018-08-06T20:43:46.203Z,26.59
2018-08-06T20:46:14.297Z,26.49
2018-08-06T20:48:42.433Z,26.50
2018-08-06T20:51:17.446Z,26.47
2018-08-06T20:53:46.204Z,26.39
2018-08-06T20:56:14.288Z,26.28
2018-08-06T20:58:42.626Z,26.28
2018-08-06T21:01:10.803Z,26.29
2018-08-06T21:03:38.905Z,26.21
2018-08-06T21:06:06.987Z,26.16
2018-08-06T21:08:35.113Z,26.05
2018-08-06T21:11:03.210Z,26.05
2018-08-06T21:13:31.302Z,25.94
2018-08-06T21:15:59.390Z,25.85
2018-08-06T21:18:27.775Z,25.83
2018-08-06T21:20:55.871Z,25.95
2018-08-06T21:23:23.984Z,25.94
2018-08-06T21:25:52.063Z,25.91
2018-08-06T21:28:20.192Z,25.95
2018-08-06T21:30:48.274Z,25.84
2018-08-06T21:33:17.311Z,25.87
2018-08-06T21:35:45.418Z,25.86
2018-08-06T21:38:13.502Z,25.86
2018-08-06T21:40:41.587Z,25.97
2018-08-06T21:43:09.695Z,25.96
2018-08-06T21:45:37.856Z,25.85
2018-08-06T21:48:05.917Z,25.85
2018-08-06T22:02:39.479Z,26.16
2018-08-06T22:05:07.965Z,26.18
2018-08-06T22:07:36.059Z,26.10
2018-08-06T22:10:04.563Z,25.96
2018-08-06T22:12:32.974Z,25.73
2018-08-06T22:15:01.077Z,25.65
2018-08-06T22:17:29.175Z,25.53
2018-08-06T22:19:57.276Z,25.31
2018-08-06T22:22:25.377Z,25.29
2018-08-06T22:24:53.520Z,25.22
2018-08-06T22:27:21.607Z,25.19
2018-08-06T22:29:49.752Z,25.17
2018-08-06T22:32:17.842Z,25.09
2018-08-06T22:34:45.961Z,25.02
2018-08-06T22:37:14.043Z,24.93
2018-08-06T22:39:42.156Z,24.85
2018-08-06T22:42:10.253Z,24.85
2018-08-06T22:44:38.365Z,24.74
2018-08-06T22:47:06.625Z,24.73
2018-08-06T22:49:34.725Z,24.73
2018-08-06T22:52:02.804Z,24.74
2018-08-06T22:54:30.898Z,24.77
2018-08-06T22:56:58.992Z,24.70
2018-08-06T22:59:27.086Z,24.46
2018-08-06T23:01:55.217Z,24.40
2018-08-06T23:04:23.291Z,24.29
2018-08-06T23:06:51.375Z,24.28
2018-08-06T23:09:20.241Z,24.25
2018-08-06T23:11:48.333Z,24.20
2018-08-06T23:14:16.449Z,24.12
2018-08-06T23:16:44.577Z,24.03
2018-08-06T23:19:12.661Z,23.96
2018-08-06T23:21:40.775Z,24.01
2018-08-06T23:24:08.879Z,23.98
2018-08-06T23:26:37.300Z,24.02
2018-08-06T23:29:05.386Z,23.92
2018-08-06T23:31:33.480Z,23.88
2018-08-06T23:34:01.582Z,23.91
2018-08-06T23:36:30.619Z,23.81
2018-08-06T23:38:58.723Z,23.65
2018-08-06T23:41:26.834Z,23.63
2018-08-06T23:43:54.943Z,23.56
2018-08-06T23:46:23.103Z,23.52
2018-08-06T23:48:51.769Z,23.42
2018-08-06T23:51:19.868Z,23.48
2018-08-06T23:53:47.956Z,23.45
2018-08-06T23:56:16.796Z,23.51
2018-08-06T23:58:44.904Z,23.48
